Time;durP1;ratioP1;P1;durP2;ratioP2;P2;SDS_P1;SDS_P2;PMS_P1;PMS_P2;Temp;Humidity;BMP_temperature;BMP_pressure;BME280_temperature;BME280_humidity;BME280_pressure;Samples;Min_cycle;Max_cycle;Signal;HPM_P1;HPM_P2
2022/08/30 00:01:23;;;;;;;0.20;0.20;;;;;;;19.23;77.57;99004.28;6270493;22;20023;-69
2022/08/30 00:03:53;;;;;;;0.20;0.20;;;;;;;19.22;77.72;98992.41;6278125;22;20034;-68
2022/08/30 00:06:21;;;;;;;0.30;0.30;;;;;;;19.20;77.83;98988.34;6276980;22;20020;-69
2022/08/30 00:08:47;;;;;;;0.25;0.25;;;;;;;19.18;78.11;98983.19;6241433;22;20447;-69
2022/08/30 00:11:18;;;;;;;0.20;0.20;;;;;;;19.16;77.98;98988.28;6278789;22;20054;-69
2022/08/30 00:13:46;;;;;;;0.20;0.20;;;;;;;19.16;78.01;98993.81;6278168;22;20470;-68
2022/08/30 00:16:12;;;;;;;0.30;0.30;;;;;;;19.16;78.27;98996.59;6268474;22;20016;-68
2022/08/30 00:18:39;;;;;;;0.20;0.20;;;;;;;19.16;78.95;98998.53;6283252;22;20031;-68
2022/08/30 00:21:08;;;;;;;0.30;0.30;;;;;;;19.16;78.67;99001.31;6266862;22;20094;-67
2022/08/30 00:23:34;;;;;;;0.20;0.20;;;;;;;19.15;78.67;99003.28;6266155;22;20050;-70
2022/08/30 00:26:01;;;;;;;0.20;0.20;;;;;;;19.19;78.62;99000.59;6281785;22;20023;-68
2022/08/30 00:28:27;;;;;;;0.30;0.30;;;;;;;19.19;78.67;98998.66;6245012;22;20024;-68
2022/08/30 00:30:53;;;;;;;0.30;0.30;;;;;;;19.20;79.07;98993.91;6243502;22;20020;-67
2022/08/30 00:33:20;;;;;;;0.22;0.22;;;;;;;19.18;79.07;98996.22;6270087;22;20062;-69
2022/08/30 00:35:46;;;;;;;0.20;0.20;;;;;;;19.15;78.83;98986.66;6213533;22;20024;-68
2022/08/30 00:38:14;;;;;;;0.20;0.20;;;;;;;19.15;78.99;98989.44;6271378;22;20030;-68
2022/08/30 00:40:44;;;;;;;0.20;0.20;;;;;;;19.12;78.90;98988.16;6242081;22;20073;-66
2022/08/30 00:43:15;;;;;;;0.20;0.20;;;;;;;19.09;79.33;98990.81;6280802;22;20485;-67
2022/08/30 00:45:41;;;;;;;0.30;0.30;;;;;;;19.09;79.15;98996.38;6215600;22;20020;-68
2022/08/30 00:48:08;;;;;;;0.22;0.22;;;;;;;19.06;79.21;98988.78;6244257;22;20019;-68
2022/08/30 00:50:38;;;;;;;0.30;0.30;;;;;;;19.08;79.33;98987.28;6279981;22;20115;-68
2022/08/30 00:53:06;;;;;;;0.20;0.20;;;;;;;19.07;79.28;98991.19;6214753;22;20020;-68
2022/08/30 00:55:34;;;;;;;0.30;0.30;;;;;;;19.04;79.62;98980.78;6240201;22;20039;-72
2022/08/30 00:58:04;;;;;;;0.32;0.20;;;;;;;19.03;79.51;98981.16;6278129;22;20023;-72
2022/08/30 01:00:30;;;;;;;0.30;0.30;;;;;;;19.04;79.40;98977.25;6223672;22;20020;-72
2022/08/30 01:02:57;;;;;;;0.20;0.20;;;;;;;19.01;78.77;98972.41;6246256;22;20030;-72
2022/08/30 01:05:23;;;;;;;0.20;0.20;;;;;;;18.99;79.34;98981.06;6239514;22;20023;-72
2022/08/30 01:07:49;;;;;;;0.20;0.20;;;;;;;18.96;79.19;98985.28;6276734;22;20478;-72
2022/08/30 01:10:16;;;;;;;0.20;0.20;;;;;;;18.93;78.98;98976.91;6278375;22;20088;-73
2022/08/30 01:12:45;;;;;;;;;;;;;;;18.97;79.19;98978.63;6278606;22;20506;-72
2022/08/30 01:15:13;;;;;;;0.20;0.20;;;;;;;18.99;78.72;98981.06;6238391;22;19923;-72
2022/08/30 01:17:41;;;;;;;0.20;0.20;;;;;;;18.97;78.97;98973.09;6276928;22;20122;-71
2022/08/30 01:20:10;;;;;;;0.20;0.20;;;;;;;19.00;78.53;98971.59;6269347;22;20024;-71
2022/08/30 01:22:43;;;;;;;0.10;0.10;;;;;;;19.03;78.96;98979.19;6250860;22;20475;-72
2022/08/30 01:25:12;;;;;;;0.30;0.30;;;;;;;19.08;78.73;98975.38;6247437;22;20030;-71
2022/08/30 01:27:43;;;;;;;0.20;0.20;;;;;;;19.10;78.29;98975.81;6248582;22;20027;-73
2022/08/30 01:30:10;;;;;;;0.30;0.30;;;;;;;19.12;78.47;98968.78;6268137;22;20026;-73
2022/08/30 01:32:38;;;;;;;;;;;;;;;19.15;78.49;98966.44;6240232;22;20023;-73
2022/08/30 01:35:05;;;;;;;0.20;0.20;;;;;;;19.16;78.05;98968.06;6239920;22;20235;-74
2022/08/30 01:37:32;;;;;;;0.20;0.20;;;;;;;19.17;78.27;98969.66;6223703;22;20463;-68
2022/08/30 01:39:59;;;;;;;0.30;0.30;;;;;;;19.18;78.02;98963.78;6278214;22;20038;-67
2022/08/30 01:42:27;;;;;;;0.20;0.20;;;;;;;19.18;77.96;98966.56;6214531;22;20023;-68
2022/08/30 01:44:53;;;;;;;0.38;0.30;;;;;;;19.16;77.87;98963.34;6236757;22;20020;-69
2022/08/30 01:47:20;;;;;;;0.22;0.22;;;;;;;19.13;78.19;98959.31;6278460;22;20028;-69
2022/08/30 01:49:47;;;;;;;0.30;0.30;;;;;;;19.15;78.44;98950.66;6241382;22;20023;-68
2022/08/30 01:52:13;;;;;;;0.30;0.30;;;;;;;19.16;78.18;98959.75;6229909;22;20092;-68
2022/08/30 01:54:41;;;;;;;0.30;0.30;;;;;;;19.15;78.02;98972.81;6264292;22;20027;-68
2022/08/30 01:57:09;;;;;;;0.47;0.30;;;;;;;19.15;78.72;98966.44;6266700;22;20069;-68
2022/08/30 01:59:38;;;;;;;0.30;0.30;;;;;;;19.15;78.81;98969.22;6253211;22;20027;-69
2022/08/30 02:02:05;;;;;;;0.20;0.20;;;;;;;19.08;78.22;98956.78;6281656;22;20027;-67
2022/08/30 02:04:31;;;;;;;0.22;0.22;;;;;;;19.11;78.27;98980.19;6269821;22;20019;-68
2022/08/30 02:06:58;;;;;;;0.20;0.20;;;;;;;19.06;78.47;98978.50;6269950;22;20023;-68
2022/08/30 02:09:24;;;;;;;0.22;0.22;;;;;;;19.07;78.57;98973.75;6253700;22;20458;-68
2022/08/30 02:11:50;;;;;;;0.20;0.20;;;;;;;19.03;78.59;98967.31;6262514;22;20015;-68
2022/08/30 02:14:16;;;;;;;0.20;0.20;;;;;;;18.94;79.05;98959.91;6268366;22;20019;-69
2022/08/30 02:16:44;;;;;;;0.30;0.30;;;;;;;18.88;79.11;98960.50;6272263;22;20027;-68
2022/08/30 02:19:10;;;;;;;;;;;;;;;18.79;79.94;98957.88;6280148;22;20532;-68
2022/08/30 02:21:36;;;;;;;0.20;0.20;;;;;;;18.72;79.74;98958.50;6282242;22;20392;-68
2022/08/30 02:24:02;;;;;;;0.20;0.20;;;;;;;18.67;80.36;98956.78;6244027;22;20480;-68
2022/08/30 02:26:28;;;;;;;0.30;0.30;;;;;;;18.63;80.23;98966.13;6240767;22;20359;-67
2022/08/30 02:28:54;;;;;;;0.30;0.30;;;;;;;18.63;80.59;98966.13;6269333;22;20439;-68
2022/08/30 02:31:21;;;;;;;0.30;0.30;;;;;;;18.59;80.63;98963.25;6277658;22;20107;-68
2022/08/30 02:33:52;;;;;;;0.20;0.20;;;;;;;18.58;80.91;98969.16;6266803;22;20045;-68
2022/08/30 02:36:19;;;;;;;0.20;0.20;;;;;;;18.56;80.82;98972.25;6251399;22;20077;-68
2022/08/30 02:38:45;;;;;;;0.25;0.25;;;;;;;18.52;81.25;98960.28;6239420;22;20031;-67
2022/08/30 02:41:11;;;;;;;0.35;0.35;;;;;;;18.58;81.41;98974.69;6277415;22;20102;-68
2022/08/30 02:43:37;;;;;;;0.28;0.28;;;;;;;18.53;81.13;98972.97;6267687;22;20128;-67
2022/08/30 02:46:04;;;;;;;0.20;0.20;;;;;;;18.50;81.41;98976.44;6241657;22;20027;-67
2022/08/30 02:48:30;;;;;;;0.20;0.20;;;;;;;18.49;81.86;98981.16;6250951;22;20035;-68
2022/08/30 02:51:04;;;;;;;0.28;0.28;;;;;;;18.49;81.48;98975.63;6266759;22;20374;-68
2022/08/30 02:53:29;;;;;;;0.30;0.30;;;;;;;18.47;81.77;98975.16;6240854;22;20027;-72
2022/08/30 02:55:55;;;;;;;0.30;0.30;;;;;;;18.51;81.28;98981.59;6239578;22;20370;-72
2022/08/30 02:58:22;;;;;;;0.20;0.20;;;;;;;18.54;81.55;98974.56;6240753;22;20026;-72
2022/08/30 03:00:48;;;;;;;0.20;0.20;;;;;;;18.55;81.69;98978.97;6279895;22;20030;-72
2022/08/30 03:03:14;;;;;;;0.30;0.30;;;;;;;18.52;81.36;98976.88;6238648;22;20024;-72
2022/08/30 03:05:40;;;;;;;0.20;0.20;;;;;;;18.54;81.19;98985.66;6239646;22;20368;-72
2022/08/30 03:08:08;;;;;;;0.20;0.20;;;;;;;18.55;81.55;98987.25;6253905;22;20020;-72
2022/08/30 03:10:34;;;;;;;0.20;0.20;;;;;;;18.57;81.17;98993.25;6270373;22;20033;-72
2022/08/30 03:13:02;;;;;;;0.20;0.20;;;;;;;18.60;81.32;98989.00;6265807;22;20029;-73
2022/08/30 03:15:28;;;;;;;0.20;0.20;;;;;;;18.62;81.04;98984.69;6268332;22;20101;-73
2022/08/30 03:17:55;;;;;;;0.30;0.30;;;;;;;18.64;80.51;98982.38;6269629;22;20039;-72
2022/08/30 03:20:22;;;;;;;1.50;0.30;;;;;;;18.66;80.63;98985.63;6239944;22;20068;-73
2022/08/30 03:22:48;;;;;;;;;;;;;;;18.69;80.69;98982.16;6240596;22;20062;-71
2022/08/30 03:25:16;;;;;;;0.20;0.20;;;;;;;18.74;79.84;98981.13;6276525;22;19942;-73
2022/08/30 03:27:42;;;;;;;0.30;0.30;;;;;;;18.77;79.83;98979.59;6282983;22;20069;-72
2022/08/30 03:30:09;;;;;;;0.22;0.22;;;;;;;18.82;79.53;98979.38;6278514;22;20498;-73
2022/08/30 03:32:35;;;;;;;0.60;0.30;;;;;;;18.84;79.23;98980.59;6242995;22;20031;-73
2022/08/30 03:35:01;;;;;;;0.20;0.20;;;;;;;18.88;79.12;98980.72;6265550;22;20070;-72
2022/08/30 03:37:29;;;;;;;0.40;0.40;;;;;;;18.95;78.92;98989.22;6216242;22;20386;-72
2022/08/30 03:39:55;;;;;;;0.30;0.30;;;;;;;19.00;78.57;98977.13;6243428;22;20039;-71
2022/08/30 03:42:23;;;;;;;0.32;0.32;;;;;;;19.06;78.53;98984.03;6268158;22;20070;-71
2022/08/30 03:44:49;;;;;;;0.30;0.30;;;;;;;19.12;78.32;98988.16;6280640;22;20023;-68
2022/08/30 03:47:15;;;;;;;0.22;0.22;;;;;;;19.13;78.17;98987.00;6279851;22;20019;-68
2022/08/30 03:49:41;;;;;;;0.20;0.20;;;;;;;19.15;77.75;98991.38;6270976;22;20084;-68
2022/08/30 03:52:07;;;;;;;0.30;0.30;;;;;;;19.17;77.66;98998.19;6269691;22;20046;-69
2022/08/30 03:54:34;;;;;;;0.20;0.20;;;;;;;19.19;77.68;98993.09;6276872;22;20020;-68
2022/08/30 03:57:00;;;;;;;0.30;0.30;;;;;;;19.18;77.73;98985.94;6265630;22;20553;-68
2022/08/30 03:59:27;;;;;;;0.38;0.38;;;;;;;19.18;77.26;98996.22;6266165;22;20024;-68
2022/08/30 04:01:53;;;;;;;0.30;0.30;;;;;;;19.16;77.29;98988.28;6278213;22;20016;-68
2022/08/30 04:04:19;;;;;;;1.25;0.30;;;;;;;19.18;77.64;98994.28;6238097;22;20114;-69
2022/08/30 04:06:45;;;;;;;0.32;0.30;;;;;;;19.16;77.25;98998.53;6278389;22;20020;-68
2022/08/30 04:09:11;;;;;;;0.30;0.30;;;;;;;19.17;77.27;99002.91;6212717;22;20027;-71
2022/08/30 04:11:37;;;;;;;0.30;0.30;;;;;;;19.19;77.63;99001.41;6276709;22;20081;-72
2022/08/30 04:14:03;;;;;;;0.30;0.30;;;;;;;19.21;77.11;99001.06;6252503;22;20027;-72
2022/08/30 04:16:31;;;;;;;0.30;0.30;;;;;;;19.23;77.51;99004.28;6265972;22;20026;-73
2022/08/30 04:18:57;;;;;;;0.30;0.30;;;;;;;19.26;77.32;99000.81;6279662;22;20027;-73
2022/08/30 04:21:23;;;;;;;0.30;0.30;;;;;;;19.31;77.11;98997.78;6267386;22;20019;-72
2022/08/30 04:23:49;;;;;;;0.30;0.30;;;;;;;19.39;76.39;98990.47;6242381;22;20050;-71
2022/08/30 04:26:15;;;;;;;0.35;0.35;;;;;;;19.47;76.11;99003.38;6237582;22;20043;-72
2022/08/30 04:28:41;;;;;;;0.30;0.30;;;;;;;19.51;75.94;98998.72;6268720;22;20015;-73
2022/08/30 04:31:08;;;;;;;0.32;0.30;;;;;;;19.54;75.92;99005.53;6278442;22;20046;-72
2022/08/30 04:33:36;;;;;;;0.93;0.45;;;;;;;19.59;75.16;99005.28;6239966;22;20019;-72
2022/08/30 04:36:04;;;;;;;0.40;0.40;;;;;;;19.68;75.26;99005.09;6265807;22;20023;-72
2022/08/30 04:38:31;;;;;;;0.30;0.30;;;;;;;19.77;74.45;99004.94;6278682;22;20020;-73
2022/08/30 04:40:57;;;;;;;0.30;0.30;;;;;;;19.78;74.10;98996.28;6280339;22;20024;-72
2022/08/30 04:43:26;;;;;;;0.30;0.30;;;;;;;19.81;74.12;99001.09;6237554;22;20024;-71
2022/08/30 04:45:53;;;;;;;0.30;0.30;;;;;;;19.84;74.09;98994.81;6268790;22;20020;-72
2022/08/30 04:48:21;;;;;;;0.20;0.20;;;;;;;19.85;73.90;98992.88;6271068;22;20038;-71
2022/08/30 04:50:48;;;;;;;0.47;0.40;;;;;;;19.91;73.97;98990.66;6250216;22;20027;-73
2022/08/30 04:53:15;;;;;;;0.68;0.47;;;;;;;19.90;73.87;98998.16;6278280;22;20123;-73
2022/08/30 04:55:42;;;;;;;0.25;0.25;;;;;;;19.95;73.89;98988.78;6280875;22;20446;-73
2022/08/30 04:58:08;;;;;;;;;;;;;;;20.00;73.69;98982.97;6271590;22;20024;-72
2022/08/30 05:00:36;;;;;;;1.13;0.47;;;;;;;20.06;73.07;98991.81;6238584;22;19919;-72
2022/08/30 05:03:02;;;;;;;;;;;;;;;20.10;72.89;99001.03;6276606;22;20026;-73
2022/08/30 05:05:40;;;;;;;0.30;0.30;;;;;;;20.10;72.47;98990.75;6230733;22;19919;-73
2022/08/30 05:08:10;;;;;;;0.35;0.35;;;;;;;20.17;72.41;98992.91;6246331;22;20459;-73
2022/08/30 05:10:38;;;;;;;0.40;0.40;;;;;;;20.24;72.57;98997.81;6272554;22;20034;-71
2022/08/30 05:13:04;;;;;;;0.30;0.30;;;;;;;20.31;71.99;99000.75;6278564;22;20026;-71
2022/08/30 05:15:30;;;;;;;0.30;0.30;;;;;;;20.36;71.93;98999.66;6241802;22;20016;-72
2022/08/30 05:17:57;;;;;;;0.30;0.30;;;;;;;20.43;71.45;99002.59;6281535;22;20141;-71
2022/08/30 05:20:22;;;;;;;0.43;0.43;;;;;;;20.45;71.20;99002.25;6240525;22;20102;-72
2022/08/30 05:22:48;;;;;;;0.40;0.40;;;;;;;20.48;71.18;99002.34;6242414;22;20051;-71
2022/08/30 05:25:17;;;;;;;0.40;0.40;;;;;;;20.53;71.19;99006.81;6251959;22;20020;-72
2022/08/30 05:27:43;;;;;;;0.30;0.30;;;;;;;20.59;70.68;98997.03;6253144;22;20452;-73
2022/08/30 05:30:11;;;;;;;0.52;0.40;;;;;;;20.59;70.71;99010.91;6279635;22;20031;-73
2022/08/30 05:32:37;;;;;;;0.40;0.40;;;;;;;20.59;70.43;98999.81;6268517;22;20051;-71
2022/08/30 05:35:05;;;;;;;0.40;0.40;;;;;;;20.71;70.19;99011.97;6279339;22;20016;-73
2022/08/30 05:37:31;;;;;;;0.30;0.30;;;;;;;20.77;69.76;99007.72;6251838;22;20482;-71
2022/08/30 05:39:58;;;;;;;0.30;0.30;;;;;;;20.82;69.78;99002.72;6269824;22;20046;-71
2022/08/30 05:42:25;;;;;;;0.43;0.30;;;;;;;20.93;69.03;99007.72;6271132;22;20027;-72
2022/08/30 05:44:52;;;;;;;0.82;0.50;;;;;;;21.00;69.11;99005.06;6267602;22;20043;-73
2022/08/30 05:47:19;;;;;;;0.95;0.40;;;;;;;21.09;68.79;99010.41;6271035;22;20443;-72
2022/08/30 05:49:45;;;;;;;0.60;0.40;;;;;;;21.17;68.46;99014.97;6190483;22;20288;-72
2022/08/30 05:52:14;;;;;;;0.73;0.60;;;;;;;21.31;67.69;99006.09;6237290;22;20171;-72
2022/08/30 05:54:40;;;;;;;0.40;0.40;;;;;;;21.44;67.20;99006.72;6278254;22;20021;-72
2022/08/30 05:57:07;;;;;;;0.50;0.50;;;;;;;21.56;66.46;99013.31;6279837;22;20020;-71
2022/08/30 05:59:34;;;;;;;0.55;0.50;;;;;;;21.59;65.81;99005.03;6270799;22;20015;-73
2022/08/30 06:02:00;;;;;;;0.45;0.40;;;;;;;21.72;65.60;99002.13;6277510;22;20027;-71
2022/08/30 06:04:26;;;;;;;0.55;0.40;;;;;;;21.83;65.07;99013.44;6237985;22;20030;-72
2022/08/30 06:06:52;;;;;;;0.50;0.40;;;;;;;21.92;64.71;99017.56;6252455;22;20020;-72
2022/08/30 06:09:18;;;;;;;0.40;0.40;;;;;;;22.09;64.14;99018.25;6278967;22;20023;-73
2022/08/30 06:11:45;;;;;;;0.63;0.43;;;;;;;22.21;63.46;99017.25;6283613;22;20035;-71
2022/08/30 06:14:12;;;;;;;0.30;0.30;;;;;;;22.28;62.84;99020.16;6270524;22;20035;-72
2022/08/30 06:16:40;;;;;;;0.95;0.50;;;;;;;22.47;62.28;99013.69;6268174;22;20019;-72
2022/08/30 06:19:07;;;;;;;0.55;0.40;;;;;;;22.58;61.62;99010.28;6264876;22;20422;-71
2022/08/30 06:21:35;;;;;;;0.40;0.40;;;;;;;22.75;61.12;99014.50;6268542;22;20051;-72
2022/08/30 06:24:04;;;;;;;0.50;0.50;;;;;;;22.90;60.73;99021.06;6243869;22;20034;-72
2022/08/30 06:26:30;;;;;;;0.70;0.50;;;;;;;22.95;60.00;99020.75;6250877;22;20031;-72
2022/08/30 06:28:57;;;;;;;0.43;0.43;;;;;;;22.90;60.02;99024.69;6281475;22;20047;-72
2022/08/30 06:31:24;;;;;;;0.40;0.40;;;;;;;22.92;59.63;99027.88;6269227;22;20015;-72
2022/08/30 06:33:52;;;;;;;0.40;0.40;;;;;;;23.05;58.96;99022.88;6252208;22;20019;-71
2022/08/30 06:36:20;;;;;;;1.13;0.60;;;;;;;23.18;58.30;99022.63;6275228;22;20047;-72
2022/08/30 06:38:49;;;;;;;0.85;0.50;;;;;;;23.33;57.82;99021.66;6266275;22;20368;-68
2022/08/30 06:41:17;;;;;;;0.40;0.40;;;;;;;23.42;57.59;99024.13;6267851;22;20015;-68
2022/08/30 06:43:43;;;;;;;0.40;0.40;;;;;;;23.47;56.90;99025.78;6278277;22;20028;-69
2022/08/30 06:46:14;;;;;;;0.40;0.40;;;;;;;23.67;56.55;99029.19;6267850;22;20030;-69
2022/08/30 06:48:40;;;;;;;0.43;0.40;;;;;;;23.82;55.94;99024.53;6224290;22;20031;-68
2022/08/30 06:51:08;;;;;;;0.47;0.47;;;;;;;23.88;55.66;99016.63;6252854;22;20043;-69
2022/08/30 06:53:35;;;;;;;0.40;0.40;;;;;;;23.90;55.65;99020.66;6271616;22;20027;-68
2022/08/30 06:56:03;;;;;;;0.40;0.40;;;;;;;23.92;55.20;99025.84;6244333;22;20355;-68
2022/08/30 06:58:30;;;;;;;0.50;0.50;;;;;;;24.01;54.88;99017.13;6249202;22;20492;-73
2022/08/30 07:00:56;;;;;;;;;;;;;;;24.17;54.49;99028.09;6257060;22;20022;-72
2022/08/30 07:03:24;;;;;;;0.55;0.55;;;;;;;24.31;54.34;99019.00;6264577;22;20321;-72
2022/08/30 07:05:50;;;;;;;0.50;0.50;;;;;;;24.62;53.10;99019.63;6265519;22;20015;-72
2022/08/30 07:08:17;;;;;;;0.50;0.50;;;;;;;24.81;52.24;99023.34;6237243;22;20020;-72
2022/08/30 07:10:44;;;;;;;0.45;0.45;;;;;;;25.00;51.56;99031.47;6266213;22;20362;-73
2022/08/30 07:13:10;;;;;;;0.68;0.57;;;;;;;25.22;50.45;99017.56;6273950;22;20089;-69
2022/08/30 07:15:40;;;;;;;0.63;0.40;;;;;;;25.60;49.61;99022.91;6266395;22;20026;-68
2022/08/30 07:20:50;;;;;;;1.20;0.60;;;;;;;25.90;49.00;99022.53;6211760;22;20558;-73
2022/08/30 07:23:18;;;;;;;0.90;0.50;;;;;;;25.91;48.39;99024.16;6274784;22;20024;-72
2022/08/30 07:25:45;;;;;;;0.47;0.40;;;;;;;25.86;48.30;99018.16;6272346;22;20019;-72
2022/08/30 07:28:11;;;;;;;0.52;0.50;;;;;;;25.89;48.47;99022.94;6240402;22;20028;-72
2022/08/30 07:30:37;;;;;;;0.87;0.50;;;;;;;25.67;49.02;99027.72;6241392;22;20393;-70
2022/08/30 07:33:04;;;;;;;0.95;0.50;;;;;;;25.18;50.19;99027.94;6266651;22;20066;-72
2022/08/30 07:35:30;;;;;;;0.50;0.50;;;;;;;24.82;51.30;99025.75;6265503;22;20107;-71
2022/08/30 07:37:57;;;;;;;0.37;0.37;;;;;;;24.63;51.95;99029.59;6265578;22;20027;-72
2022/08/30 07:40:24;;;;;;;0.50;0.50;;;;;;;24.60;51.86;99027.59;6237191;22;20265;-72
2022/08/30 07:42:51;;;;;;;0.50;0.50;;;;;;;24.92;51.18;99024.22;6265118;22;20100;-68
2022/08/30 07:45:17;;;;;;;0.40;0.40;;;;;;;25.31;50.15;99032.00;6274451;22;20020;-69
2022/08/30 07:47:43;;;;;;;0.70;0.40;;;;;;;25.36;49.73;99025.19;6231874;22;20491;-69
2022/08/30 07:50:09;;;;;;;0.40;0.40;;;;;;;25.51;49.54;99033.66;6251149;22;20034;-72
2022/08/30 07:52:35;;;;;;;0.52;0.50;;;;;;;25.77;48.50;99032.53;6267448;22;20031;-69
2022/08/30 07:55:02;;;;;;;0.50;0.50;;;;;;;26.15;47.72;99034.97;6237438;22;20022;-72
2022/08/30 07:57:33;;;;;;;0.35;0.35;;;;;;;26.09;47.31;99028.16;6261898;22;20019;-71
2022/08/30 08:00:00;;;;;;;0.50;0.50;;;;;;;25.84;47.08;99023.34;6232219;22;20019;-69
2022/08/30 08:02:26;;;;;;;0.60;0.60;;;;;;;26.04;47.41;99027.38;6274279;22;20016;-69
2022/08/30 08:04:52;;;;;;;0.93;0.50;;;;;;;26.36;46.76;99031.38;6274737;22;20463;-69
2022/08/30 08:07:19;;;;;;;0.63;0.60;;;;;;;26.26;47.07;99033.00;6272418;22;20486;-68
2022/08/30 08:09:45;;;;;;;0.60;0.60;;;;;;;26.54;46.66;99033.38;6235993;22;20050;-69
2022/08/30 08:12:11;;;;;;;0.93;0.57;;;;;;;26.85;45.65;99031.72;6267131;22;20472;-69
2022/08/30 08:14:40;;;;;;;0.65;0.50;;;;;;;26.78;45.82;99028.94;6203301;22;20389;-69
2022/08/30 08:17:06;;;;;;;0.93;0.60;;;;;;;27.02;44.98;99029.28;6184013;22;20069;-72
2022/08/30 08:19:32;;;;;;;1.23;0.68;;;;;;;27.17;44.55;99038.47;6267975;22;20032;-72
2022/08/30 08:21:59;;;;;;;0.60;0.60;;;;;;;27.59;43.81;99025.44;6240601;22;20046;-73
2022/08/30 08:24:25;;;;;;;0.60;0.60;;;;;;;28.23;42.20;99028.22;6265005;22;20023;-73
2022/08/30 08:26:52;;;;;;;0.70;0.70;;;;;;;28.56;41.80;99034.34;6256733;22;20412;-69
2022/08/30 08:29:18;;;;;;;0.63;0.55;;;;;;;28.70;40.70;99036.19;6266270;22;20024;-68
2022/08/30 08:31:45;;;;;;;0.50;0.50;;;;;;;28.57;40.69;99030.31;6236975;22;20023;-71
2022/08/30 08:34:12;;;;;;;0.60;0.60;;;;;;;28.47;40.51;99022.00;6264970;22;20043;-73
2022/08/30 08:36:39;;;;;;;0.70;0.70;;;;;;;28.48;40.70;99020.78;6249896;22;20489;-72
2022/08/30 08:39:07;;;;;;;0.57;0.57;;;;;;;28.54;40.07;99031.16;6275668;22;20087;-70
2022/08/30 08:41:48;;;;;;;0.77;0.68;;;;;;;28.74;39.82;99022.13;6276848;22;20023;-72
2022/08/30 08:44:28;;;;;;;0.70;0.70;;;;;;;28.92;39.40;99027.59;6239081;22;20051;-72
2022/08/30 08:47:04;;;;;;;0.65;0.65;;;;;;;29.05;39.54;99022.19;6239894;22;20019;-72
2022/08/30 08:49:33;;;;;;;0.60;0.60;;;;;;;29.29;38.51;99028.72;6264323;22;20376;-72
2022/08/30 08:54:51;;;;;;;0.70;0.70;;;;;;;29.79;38.18;99032.09;6276051;22;20089;-72
2022/08/30 08:57:17;;;;;;;0.98;0.88;;;;;;;30.31;37.04;99027.28;6245748;22;20047;-72
2022/08/30 08:59:44;;;;;;;0.67;0.67;;;;;;;30.65;35.48;99033.94;6274190;22;20046;-72
2022/08/30 09:02:22;;;;;;;0.60;0.60;;;;;;;30.41;36.26;99028.31;6264118;22;20281;-72
2022/08/30 09:04:53;;;;;;;0.63;0.63;;;;;;;30.08;36.57;99037.31;6272409;22;20789;-70
2022/08/30 09:07:23;;;;;;;0.68;0.68;;;;;;;30.29;36.26;99035.38;6261797;22;20398;-72
2022/08/30 09:09:49;;;;;;;1.30;0.80;;;;;;;30.63;35.64;99040.03;6275052;22;20035;-72
2022/08/30 09:12:15;;;;;;;0.90;0.90;;;;;;;30.85;35.31;99042.44;6264643;22;20087;-73
2022/08/30 09:14:45;;;;;;;0.70;0.70;;;;;;;30.93;34.41;99040.28;6273696;22;20387;-72
2022/08/30 09:17:14;;;;;;;0.80;0.80;;;;;;;30.91;34.84;99037.91;6263997;22;20043;-73
2022/08/30 09:19:44;;;;;;;0.70;0.70;;;;;;;31.35;33.31;99043.50;6276649;22;20026;-69
2022/08/30 09:22:25;;;;;;;0.60;0.60;;;;;;;31.16;34.19;99039.41;6275614;22;20023;-69
2022/08/30 09:24:54;;;;;;;0.95;0.90;;;;;;;30.91;34.56;99034.28;6244627;22;20077;-70
2022/08/30 09:27:24;;;;;;;0.70;0.70;;;;;;;30.97;34.29;99041.81;6267400;22;20051;-70
2022/08/30 09:29:53;;;;;;;0.90;0.90;;;;;;;30.83;34.19;99051.34;6229413;22;20203;-70
2022/08/30 09:32:34;;;;;;;1.15;0.88;;;;;;;30.78;34.27;99048.25;6254895;22;20044;-74
2022/08/30 09:35:00;;;;;;;1.00;1.00;;;;;;;30.63;33.94;99056.97;6224205;22;20103;-72
2022/08/30 09:37:32;;;;;;;1.23;1.02;;;;;;;30.89;33.14;99036.75;6264269;22;20019;-72
2022/08/30 09:39:59;;;;;;;1.15;1.05;;;;;;;31.75;31.89;99036.97;6269129;22;20042;-73
2022/08/30 09:42:27;;;;;;;1.40;1.00;;;;;;;32.31;31.49;99040.88;6261342;22;20468;-73
2022/08/30 09:45:12;;;;;;;0.70;0.70;;;;;;;31.94;31.71;99040.19;6245841;22;20019;-72
2022/08/30 09:47:42;;;;;;;0.70;0.70;;;;;;;31.38;32.55;99039.78;6263550;22;20023;-73
2022/08/30 09:50:11;;;;;;;1.00;0.90;;;;;;;30.81;33.84;99048.16;6245229;22;20065;-72
2022/08/30 09:52:51;;;;;;;0.80;0.80;;;;;;;30.44;34.28;99061.28;6226902;22;20016;-71
2022/08/30 09:55:51;;;;;;;0.90;0.90;;;;;;;30.43;34.91;99040.75;6265909;22;20031;-69
2022/08/30 09:58:27;;;;;;;0.90;0.90;;;;;;;30.86;34.28;99035.56;6210326;22;20043;-72
2022/08/30 10:01:03;;;;;;;0.70;0.70;;;;;;;31.11;33.79;99043.53;6258001;22;20023;-71
2022/08/30 10:03:38;;;;;;;0.90;0.90;;;;;;;31.27;33.68;99034.38;6206760;22;20548;-72
2022/08/30 10:06:12;;;;;;;0.80;0.80;;;;;;;31.90;32.68;99033.84;6270432;22;20023;-72
2022/08/30 10:08:54;;;;;;;0.80;0.80;;;;;;;32.14;31.70;99030.81;6256983;22;20054;-72
2022/08/30 10:11:26;;;;;;;0.75;0.70;;;;;;;31.94;32.89;99035.34;6258378;22;20489;-73
2022/08/30 10:14:23;;;;;;;0.70;0.70;;;;;;;31.94;33.02;99049.47;6260689;22;20478;-71
2022/08/30 10:16:58;;;;;;;0.93;0.93;;;;;;;31.71;32.99;99044.72;6228740;22;20485;-69
2022/08/30 10:19:38;;;;;;;0.80;0.80;;;;;;;31.75;33.54;99038.97;6209815;22;20367;-69
2022/08/30 10:22:10;;;;;;;0.95;0.95;;;;;;;31.57;33.05;99036.59;6266598;22;20023;-70
2022/08/30 10:24:41;;;;;;;0.90;0.90;;;;;;;31.75;33.00;99041.81;6253108;22;20094;-69
2022/08/30 10:27:14;;;;;;;1.10;1.10;;;;;;;32.31;31.73;99040.88;6236550;22;20019;-69
2022/08/30 10:29:45;;;;;;;1.35;1.25;;;;;;;32.57;31.00;99026.94;6276839;22;20486;-70
2022/08/30 10:32:19;;;;;;;1.00;1.00;;;;;;;33.56;30.19;99039.13;6276141;22;20028;-68
2022/08/30 10:34:53;;;;;;;1.30;1.20;;;;;;;33.98;28.71;99047.56;6239582;22;20354;-69
2022/08/30 10:37:23;;;;;;;0.80;0.80;;;;;;;33.30;29.57;99041.94;6264583;22;20024;-69
2022/08/30 10:39:52;;;;;;;1.35;1.25;;;;;;;33.70;29.68;99038.69;6271792;22;20020;-72
2022/08/30 10:42:24;;;;;;;1.13;1.10;;;;;;;35.01;27.60;99046.50;6246243;22;20020;-69
2022/08/30 10:44:57;;;;;;;1.40;1.30;;;;;;;35.97;26.42;99027.47;6212935;22;20038;-72
2022/08/30 10:47:31;;;;;;;1.50;1.40;;;;;;;36.39;25.49;99034.72;6231579;22;20019;-73
2022/08/30 10:50:08;;;;;;;1.30;1.20;;;;;;;35.99;25.41;99036.34;6273154;22;20037;-73
2022/08/30 10:52:39;;;;;;;0.80;0.80;;;;;;;34.73;26.81;99034.94;6269966;22;20023;-73
2022/08/30 10:55:12;;;;;;;1.20;1.10;;;;;;;33.70;28.74;99033.03;6263061;22;20016;-73
2022/08/30 10:57:38;;;;;;;1.10;0.90;;;;;;;33.69;28.76;99039.16;6275842;22;20022;-72
2022/08/30 11:00:09;;;;;;;1.10;1.00;;;;;;;33.63;28.74;99028.38;6275228;22;20050;-72
2022/08/30 11:03:09;;;;;;;1.60;1.50;;;;;;;33.76;28.89;99038.94;6275894;22;20019;-69
2022/08/30 11:05:53;;;;;;;1.50;1.40;;;;;;;34.40;28.14;99038.06;6256628;22;20050;-69
2022/08/30 11:08:36;;;;;;;1.70;1.60;;;;;;;35.26;26.66;99029.81;6248573;22;20024;-72
2022/08/30 11:11:17;;;;;;;1.60;1.50;;;;;;;36.22;25.44;99037.03;6265868;22;20019;-72
2022/08/30 11:13:45;;;;;;;1.48;1.38;;;;;;;36.67;24.70;99034.72;6265321;22;20050;-75
2022/08/30 11:16:14;;;;;;;1.50;1.40;;;;;;;36.62;24.69;99033.34;6268590;22;20167;-72
2022/08/30 11:18:44;;;;;;;1.20;1.10;;;;;;;37.04;23.60;99029.06;6273738;22;20028;-74
2022/08/30 11:21:23;;;;;;;1.60;1.50;;;;;;;36.95;23.18;99026.19;6233666;22;20475;-70
2022/08/30 11:24:12;;;;;;;1.60;1.50;;;;;;;37.91;22.43;99022.13;6243692;22;20027;-72
2022/08/30 11:26:59;;;;;;;1.60;1.50;;;;;;;38.34;21.51;99018.41;6252891;22;20420;-72
2022/08/30 11:29:42;;;;;;;1.45;1.35;;;;;;;38.00;21.37;99016.41;6258568;22;20050;-72
2022/08/30 11:32:41;;;;;;;1.60;1.50;;;;;;;38.04;21.45;99021.94;6178065;22;20331;-73
2022/08/30 11:35:08;;;;;;;1.60;1.50;;;;;;;38.60;21.58;99035.06;6233610;22;20027;-73
2022/08/30 11:37:41;;;;;;;1.67;1.45;;;;;;;38.93;21.07;99017.81;6257077;22;20442;-72
2022/08/30 11:40:30;;;;;;;1.60;1.50;;;;;;;38.85;21.39;99028.78;6269473;22;20047;-73
2022/08/30 11:42:56;;;;;;;1.60;1.50;;;;;;;38.80;21.57;99025.84;6262728;22;20069;-73
2022/08/30 11:45:45;;;;;;;1.60;1.50;;;;;;;39.18;20.91;99024.22;6259532;22;20020;-74
2022/08/30 11:48:42;;;;;;;1.40;1.30;;;;;;;37.65;21.99;99030.34;6269170;22;20077;-70